Time;durP1;ratioP1;P1;durP2;ratioP2;P2;SDS_P1;SDS_P2;PMS_P1;PMS_P2;Temp;Humidity;BMP_temperature;BMP_pressure;BME280_temperature;BME280_humidity;BME280_pressure;Samples;Min_cycle;Max_cycle;Signal;HPM_P1;HPM_P2
2021/05/05 00:00:38;;;;;;;8.00;7.50;;;9.70;99.90;;;;;;5070442;28;20267;-79
2021/05/05 00:03:05;;;;;;;9.87;9.20;;;9.60;99.90;;;;;;5079637;28;20206;-79
2021/05/05 00:05:33;;;;;;;8.03;7.63;;;9.60;99.90;;;;;;5072244;28;20609;-79
2021/05/05 00:07:59;;;;;;;7.53;7.13;;;9.50;99.90;;;;;;5081938;28;20227;-79
2021/05/05 00:10:26;;;;;;;9.37;8.87;;;9.40;99.90;;;;;;5070755;28;20719;-78
2021/05/05 00:12:52;;;;;;;7.30;6.90;;;9.40;99.90;;;;;;5072001;28;20203;-79
2021/05/05 00:15:22;;;;;;;7.10;6.70;;;9.40;99.90;;;;;;5070706;28;20201;-79
2021/05/05 00:17:49;;;;;;;6.97;6.57;;;9.40;99.90;;;;;;5070600;28;20229;-79
2021/05/05 00:20:18;;;;;;;7.20;6.80;;;9.30;99.90;;;;;;5070403;28;20714;-79
2021/05/05 00:22:45;;;;;;;6.83;6.50;;;9.30;99.90;;;;;;5081461;28;20210;-79
2021/05/05 00:25:12;;;;;;;6.93;6.50;;;9.10;99.90;;;;;;5072434;28;20191;-79
2021/05/05 00:27:38;;;;;;;6.93;6.53;;;9.10;99.90;;;;;;5069734;28;20226;-79
2021/05/05 00:30:07;;;;;;;6.00;5.70;;;9.00;99.90;;;;;;5070719;28;20186;-80
2021/05/05 00:32:34;;;;;;;6.97;6.47;;;8.90;99.90;;;;;;5069735;28;20219;-80
2021/05/05 00:35:01;;;;;;;7.73;7.33;;;8.90;99.90;;;;;;5069642;28;20210;-78
2021/05/05 00:37:27;;;;;;;6.90;6.50;;;8.90;99.90;;;;;;5070749;28;20217;-79
2021/05/05 00:39:55;;;;;;;6.40;6.00;;;8.80;99.90;;;;;;5069160;28;20230;-80
2021/05/05 00:42:22;;;;;;;6.50;6.20;;;8.80;99.90;;;;;;5070586;28;20194;-79
2021/05/05 00:44:48;;;;;;;6.00;5.70;;;8.80;99.90;;;;;;5069496;28;20206;-79
2021/05/05 00:47:16;;;;;;;8.20;7.70;;;8.70;99.90;;;;;;5085324;28;20214;-79
2021/05/05 00:49:43;;;;;;;7.20;6.80;;;8.60;99.90;;;;;;5069325;28;20197;-79
2021/05/05 00:52:10;;;;;;;7.00;6.60;;;8.60;99.90;;;;;;5069605;28;20197;-79
2021/05/05 00:54:36;;;;;;;7.10;6.70;;;8.50;99.90;;;;;;5069483;28;20244;-80
2021/05/05 00:57:04;;;;;;;7.23;6.83;;;8.50;99.90;;;;;;5069244;28;20226;-79
2021/05/05 00:59:30;;;;;;;7.20;6.80;;;8.50;99.90;;;;;;5069309;28;20487;-80
2021/05/05 01:01:57;;;;;;;6.97;6.60;;;8.60;99.90;;;;;;5068931;28;20228;-79
2021/05/05 01:04:24;;;;;;;7.10;6.70;;;8.50;99.90;;;;;;5069406;28;20204;-80
2021/05/05 01:06:53;;;;;;;6.20;5.80;;;8.50;99.90;;;;;;5070478;28;20225;-80
2021/05/05 01:09:22;;;;;;;5.70;5.40;;;8.40;99.90;;;;;;5084429;28;20206;-80
2021/05/05 01:11:49;;;;;;;6.70;6.30;;;8.40;99.90;;;;;;5070355;28;20193;-79
2021/05/05 01:14:16;;;;;;;6.67;6.37;;;8.40;99.90;;;;;;5073092;28;20209;-80
2021/05/05 01:16:42;;;;;;;6.07;5.77;;;8.40;99.90;;;;;;5068018;28;20699;-80
2021/05/05 01:19:09;;;;;;;6.90;6.50;;;8.40;99.90;;;;;;5065785;28;20649;-80
2021/05/05 01:21:37;;;;;;;7.07;6.67;;;8.40;99.90;;;;;;5083351;28;20205;-80
2021/05/05 01:24:06;;;;;;;7.27;6.83;;;8.40;99.90;;;;;;5071948;28;20298;-79
2021/05/05 01:26:33;;;;;;;6.70;6.40;;;8.40;99.90;;;;;;5052515;28;568697;-79
2021/05/05 01:29:01;;;;;;;6.67;6.27;;;8.40;99.90;;;;;;5073572;28;20232;-80
2021/05/05 01:31:28;;;;;;;6.67;6.37;;;8.30;99.90;;;;;;5090441;28;20290;-79
2021/05/05 01:33:55;;;;;;;7.20;6.80;;;8.30;99.90;;;;;;5074037;28;20214;-79
2021/05/05 01:36:25;;;;;;;7.07;6.67;;;8.40;99.90;;;;;;5074482;28;20610;-80
2021/05/05 01:38:53;;;;;;;6.90;6.37;;;8.40;99.90;;;;;;5074775;28;20720;-79
2021/05/05 01:41:23;;;;;;;7.10;6.70;;;8.40;99.90;;;;;;5073649;28;20275;-79
2021/05/05 01:43:50;;;;;;;7.07;6.67;;;8.40;99.90;;;;;;5073468;28;20208;-79
2021/05/05 01:46:20;;;;;;;6.87;6.53;;;8.40;99.90;;;;;;5073488;28;20197;-80
2021/05/05 01:48:47;;;;;;;7.20;6.80;;;8.30;99.90;;;;;;5073055;28;20326;-79
2021/05/05 01:51:13;;;;;;;7.00;6.60;;;8.30;99.90;;;;;;5074754;28;20189;-79
2021/05/05 01:53:41;;;;;;;6.90;6.60;;;8.30;99.90;;;;;;5073563;28;20717;-79
2021/05/05 01:56:08;;;;;;;7.10;6.70;;;8.30;99.90;;;;;;5073203;28;20677;-79
2021/05/05 01:58:36;;;;;;;7.00;6.70;;;8.20;99.90;;;;;;5074136;28;20211;-79
2021/05/05 02:01:02;;;;;;;7.10;6.70;;;8.20;99.90;;;;;;5074527;28;20212;-79
2021/05/05 02:03:30;;;;;;;7.27;6.90;;;8.30;99.90;;;;;;5073092;28;20202;-79
2021/05/05 02:06:06;;;;;;;6.97;6.57;;;8.20;99.90;;;;;;5083153;28;20239;-80
2021/05/05 02:08:59;;;;;;;7.20;6.80;;;8.20;99.90;;;;;;5059165;28;20326;-79
2021/05/05 02:11:27;;;;;;;7.00;6.60;;;8.20;99.90;;;;;;5072916;28;20197;-80
2021/05/05 02:13:55;;;;;;;6.97;6.57;;;8.20;99.90;;;;;;5084308;28;20237;-79
2021/05/05 02:16:23;;;;;;;6.90;6.60;;;8.20;99.90;;;;;;5072844;28;20201;-79
2021/05/05 02:18:54;;;;;;;7.27;6.87;;;8.30;99.90;;;;;;5072263;28;20202;-79
2021/05/05 02:21:21;;;;;;;6.60;6.30;;;8.30;99.90;;;;;;5072736;28;20236;-80
2021/05/05 02:23:48;;;;;;;7.30;6.90;;;8.30;99.90;;;;;;5073464;28;20262;-80
2021/05/05 02:26:15;;;;;;;7.90;7.50;;;8.30;99.90;;;;;;5071856;28;20692;-79
2021/05/05 02:28:44;;;;;;;6.90;6.50;;;8.30;99.90;;;;;;5072406;28;20207;-80
2021/05/05 02:31:28;;;;;;;7.00;6.63;;;8.20;99.90;;;;;;5072797;28;20201;-80
2021/05/05 02:33:56;;;;;;;7.77;7.37;;;8.30;99.90;;;;;;5081527;28;20288;-78
2021/05/05 02:36:22;;;;;;;8.00;7.60;;;8.20;99.90;;;;;;5074490;28;20633;-78
2021/05/05 02:38:49;;;;;;;6.93;6.60;;;8.30;99.90;;;;;;5072858;28;20199;-77
2021/05/05 02:41:17;;;;;;;6.90;6.50;;;8.20;99.90;;;;;;5087507;28;20217;-76
2021/05/05 02:43:48;;;;;;;6.80;6.40;;;8.20;99.90;;;;;;5072534;28;20225;-76
2021/05/05 02:46:14;;;;;;;6.90;6.40;;;8.10;99.90;;;;;;5073170;28;20201;-77
2021/05/05 02:48:40;;;;;;;7.50;7.10;;;8.10;99.90;;;;;;5071992;28;20279;-78
2021/05/05 02:51:07;;;;;;;7.50;7.10;;;8.10;99.90;;;;;;5071762;28;20251;-78
2021/05/05 02:53:34;;;;;;;7.13;6.73;;;8.00;99.90;;;;;;5071791;28;20614;-78
2021/05/05 02:56:01;;;;;;;7.50;7.00;;;8.00;99.90;;;;;;5074326;28;20204;-79
2021/05/05 02:58:28;;;;;;;7.90;7.50;;;8.00;99.90;;;;;;5072631;28;20719;-79
2021/05/05 03:00:55;;;;;;;8.47;8.00;;;8.00;99.90;;;;;;5071715;28;20220;-80
2021/05/05 03:03:22;;;;;;;7.37;6.97;;;8.00;99.90;;;;;;5072081;28;20196;-79
2021/05/05 03:05:48;;;;;;;7.50;7.10;;;8.00;99.90;;;;;;5071622;28;20210;-80
2021/05/05 03:08:17;;;;;;;7.60;7.20;;;8.00;99.90;;;;;;5071411;28;20234;-81
2021/05/05 03:10:44;;;;;;;7.90;7.40;;;8.00;99.90;;;;;;5073027;28;20196;-81
2021/05/05 03:13:11;;;;;;;7.80;7.40;;;7.90;99.90;;;;;;5071657;28;20199;-82
2021/05/05 03:15:37;;;;;;;7.60;7.20;;;7.90;99.90;;;;;;5072242;28;20208;-78
2021/05/05 03:18:05;;;;;;;7.60;7.20;;;7.90;99.90;;;;;;5072088;28;20229;-80
2021/05/05 03:20:32;;;;;;;7.50;7.10;;;7.90;99.90;;;;;;5072038;28;20607;-76
2021/05/05 03:22:58;;;;;;;8.37;7.67;;;7.90;99.90;;;;;;5072288;28;20199;-79
2021/05/05 03:25:25;;;;;;;1.80;1.80;;;8.00;99.90;;;;;;5069961;28;20200;-83
2021/05/05 03:27:51;;;;;;;1.97;1.83;;;7.90;99.90;;;;;;5083291;28;20224;-81
2021/05/05 03:30:19;;;;;;;2.67;1.97;;;7.90;99.90;;;;;;5071153;28;20654;-81
2021/05/05 03:32:46;;;;;;;2.17;1.97;;;7.90;99.90;;;;;;5071502;28;20265;-81
2021/05/05 03:35:13;;;;;;;2.10;2.00;;;7.80;99.90;;;;;;5072912;28;20257;-82
2021/05/05 03:37:39;;;;;;;2.10;2.00;;;7.80;99.90;;;;;;5068413;28;20223;-81
2021/05/05 03:40:08;;;;;;;2.73;1.97;;;7.70;99.90;;;;;;5071195;28;20193;-81
2021/05/05 03:42:34;;;;;;;1.80;1.77;;;7.80;99.90;;;;;;5071417;28;20621;-83
2021/05/05 03:45:02;;;;;;;1.80;1.80;;;7.80;99.90;;;;;;5072240;28;20205;-83
2021/05/05 03:47:31;;;;;;;2.00;1.90;;;7.80;99.90;;;;;;5072333;28;20224;-82
2021/05/05 03:49:58;;;;;;;2.47;2.00;;;7.80;99.90;;;;;;5070851;28;20201;-82
2021/05/05 03:52:26;;;;;;;2.00;1.90;;;7.80;99.90;;;;;;5072257;28;20239;-83
2021/05/05 03:54:53;;;;;;;2.10;2.00;;;7.80;99.90;;;;;;5070974;28;20665;-83
2021/05/05 03:57:19;;;;;;;2.17;1.90;;;7.80;99.90;;;;;;5087113;28;20219;-82
2021/05/05 03:59:45;;;;;;;2.10;2.00;;;7.80;99.90;;;;;;5072040;28;20724;-83
2021/05/05 04:02:11;;;;;;;2.43;2.23;;;7.80;99.90;;;;;;5071030;28;20226;-82
2021/05/05 04:04:38;;;;;;;2.53;2.33;;;7.80;99.90;;;;;;5071042;28;20196;-82
2021/05/05 04:07:04;;;;;;;2.50;2.37;;;7.70;99.90;;;;;;5071926;28;20246;-83
2021/05/05 04:09:35;;;;;;;2.20;2.10;;;7.80;99.90;;;;;;5070761;28;20315;-83
2021/05/05 04:12:02;;;;;;;2.00;1.90;;;7.80;99.90;;;;;;5070598;28;20656;-84
2021/05/05 04:14:29;;;;;;;2.00;1.90;;;7.70;99.90;;;;;;5070946;28;20276;-83
2021/05/05 04:16:55;;;;;;;2.63;2.10;;;7.70;99.90;;;;;;5068823;28;20216;-83
2021/05/05 04:19:22;;;;;;;4.63;2.10;;;7.70;99.90;;;;;;5070604;28;20204;-83
2021/05/05 04:21:49;;;;;;;2.30;2.10;;;7.60;99.90;;;;;;5071885;28;20219;-84
2021/05/05 04:24:15;;;;;;;1.90;1.80;;;7.60;99.90;;;;;;5081341;28;20207;-83
2021/05/05 04:26:43;;;;;;;2.20;2.10;;;7.60;99.90;;;;;;5058995;28;20231;-83
2021/05/05 04:29:10;;;;;;;2.37;2.20;;;7.60;99.90;;;;;;5070529;28;20197;-83
2021/05/05 04:31:36;;;;;;;2.53;2.20;;;7.60;99.90;;;;;;5070730;28;20184;-83
2021/05/05 04:34:03;;;;;;;2.40;2.20;;;7.60;99.90;;;;;;5072373;28;20628;-82
2021/05/05 04:36:29;;;;;;;2.40;2.20;;;7.50;99.90;;;;;;5070683;28;20575;-83
2021/05/05 04:38:55;;;;;;;2.70;2.50;;;7.60;99.90;;;;;;5081429;28;20205;-84
2021/05/05 04:41:22;;;;;;;2.87;2.50;;;7.60;99.90;;;;;;5071594;28;20219;-84
2021/05/05 04:43:49;;;;;;;2.20;2.10;;;7.50;99.90;;;;;;5070646;28;20213;-83
2021/05/05 04:46:15;;;;;;;3.60;2.20;;;7.60;99.90;;;;;;5086515;28;20736;-83
2021/05/05 04:48:42;;;;;;;2.27;2.17;;;7.60;99.90;;;;;;5072723;28;20201;-82
2021/05/05 04:51:08;;;;;;;2.70;2.50;;;7.60;99.90;;;;;;5074427;28;20282;-83
2021/05/05 04:53:35;;;;;;;2.37;2.17;;;7.60;99.90;;;;;;5070331;28;20706;-85
2021/05/05 04:56:02;;;;;;;2.53;2.10;;;7.60;99.90;;;;;;5074592;28;20211;-83
2021/05/05 04:58:28;;;;;;;5.40;2.33;;;7.60;99.90;;;;;;5080669;28;20227;-83
2021/05/05 05:00:55;;;;;;;2.20;2.10;;;7.60;99.90;;;;;;5091190;28;20225;-82
2021/05/05 05:03:22;;;;;;;2.10;2.00;;;7.60;99.90;;;;;;5074630;28;20187;-83
2021/05/05 05:05:48;;;;;;;2.40;2.20;;;7.60;99.90;;;;;;5075721;28;20192;-83
2021/05/05 05:08:14;;;;;;;2.30;2.20;;;7.60;99.90;;;;;;5073893;28;20230;-83
2021/05/05 05:10:41;;;;;;;2.30;2.10;;;7.60;99.90;;;;;;5074366;28;20201;-83
2021/05/05 05:13:07;;;;;;;2.10;2.00;;;7.60;99.90;;;;;;5074362;28;20219;-83
2021/05/05 05:15:33;;;;;;;2.10;2.00;;;7.60;99.90;;;;;;5074309;28;20246;-83
2021/05/05 05:18:04;;;;;;;2.10;2.00;;;7.60;99.90;;;;;;5074024;28;20224;-85
2021/05/05 05:20:31;;;;;;;2.20;2.00;;;7.70;99.90;;;;;;5074027;28;20270;-83
2021/05/05 05:22:58;;;;;;;2.20;2.10;;;7.80;99.90;;;;;;5080930;28;20206;-83
2021/05/05 05:25:25;;;;;;;2.40;2.20;;;7.80;99.90;;;;;;5074079;28;20204;-83
2021/05/05 05:27:52;;;;;;;2.10;2.00;;;7.80;99.90;;;;;;5082935;28;20240;-84
2021/05/05 05:30:19;;;;;;;2.30;2.20;;;7.80;99.90;;;;;;5075799;28;20208;-81
2021/05/05 05:32:46;;;;;;;2.10;2.00;;;7.80;99.90;;;;;;5073923;28;20304;-83
2021/05/05 05:35:13;;;;;;;2.27;2.00;;;7.90;99.90;;;;;;5073881;28;20681;-81
2021/05/05 05:37:40;;;;;;;7.30;6.90;;;8.00;99.90;;;;;;5073803;28;20310;-81
2021/05/05 05:40:08;;;;;;;6.70;6.30;;;8.10;99.90;;;;;;5090678;28;20662;-83
2021/05/05 05:42:35;;;;;;;7.43;7.03;;;8.10;99.90;;;;;;5073770;28;20304;-80
2021/05/05 05:45:02;;;;;;;7.20;6.80;;;8.00;99.90;;;;;;5075489;28;20201;-81
2021/05/05 05:47:28;;;;;;;7.57;7.17;;;8.00;99.90;;;;;;5073679;28;20210;-81
2021/05/05 05:49:54;;;;;;;3.00;2.83;;;8.10;99.90;;;;;;5074372;28;20661;-81
2021/05/05 05:52:21;;;;;;;2.00;1.90;;;8.20;99.90;;;;;;5075014;28;20255;-81
2021/05/05 05:54:48;;;;;;;2.00;1.90;;;8.20;99.90;;;;;;5074812;28;20723;-81
2021/05/05 05:57:14;;;;;;;2.00;1.90;;;8.30;99.90;;;;;;5073209;28;20226;-81
2021/05/05 05:59:42;;;;;;;1.90;1.80;;;8.30;99.90;;;;;;5073123;28;20206;-81
2021/05/05 06:02:09;;;;;;;6.00;5.70;;;8.50;99.90;;;;;;5070417;28;20577;-81
2021/05/05 06:04:35;;;;;;;6.17;5.87;;;8.70;99.90;;;;;;5074328;28;20240;-81
2021/05/05 06:07:02;;;;;;;5.67;5.37;;;8.80;99.90;;;;;;5089926;28;20226;-81
2021/05/05 06:09:29;;;;;;;8.00;7.60;;;9.10;99.90;;;;;;5074300;28;20187;-82
2021/05/05 06:11:56;;;;;;;5.40;5.10;;;9.20;99.90;;;;;;5074274;28;20191;-81
2021/05/05 06:14:22;;;;;;;6.87;6.57;;;9.40;99.90;;;;;;5074911;28;20197;-81
2021/05/05 06:16:48;;;;;;;5.50;5.20;;;9.40;99.90;;;;;;5073369;28;20214;-80
2021/05/05 06:19:15;;;;;;;2.70;2.60;;;9.40;99.90;;;;;;5074067;28;20205;-81
2021/05/05 06:21:41;;;;;;;2.60;2.40;;;9.40;99.90;;;;;;5073214;28;20264;-81
2021/05/05 06:24:08;;;;;;;2.30;2.20;;;9.40;99.90;;;;;;5074568;28;20549;-81
2021/05/05 06:26:35;;;;;;;3.20;3.00;;;9.50;99.90;;;;;;5081914;28;20222;-81
2021/05/05 06:29:01;;;;;;;3.00;2.80;;;9.70;99.90;;;;;;5090044;28;20202;-81
2021/05/05 06:31:28;;;;;;;3.10;3.00;;;9.70;99.90;;;;;;5072744;28;20568;-81
2021/05/05 06:33:54;;;;;;;3.20;3.00;;;9.50;99.90;;;;;;5073973;28;20198;-81
2021/05/05 06:36:20;;;;;;;3.40;3.20;;;9.40;99.90;;;;;;5073967;28;20187;-84
2021/05/05 06:38:47;;;;;;;3.50;3.30;;;9.40;99.90;;;;;;5072635;28;20203;-83
2021/05/05 06:41:13;;;;;;;3.27;3.07;;;9.70;99.90;;;;;;5072392;28;20687;-81
2021/05/05 06:43:40;;;;;;;6.40;6.10;;;10.30;99.90;;;;;;5072732;28;20194;-82
2021/05/05 06:46:07;;;;;;;4.77;4.37;;;10.40;99.90;;;;;;5072677;28;20194;-81
2021/05/05 06:48:33;;;;;;;4.43;4.20;;;10.40;99.90;;;;;;5072248;28;20214;-82
2021/05/05 06:50:59;;;;;;;5.30;4.90;;;10.30;99.90;;;;;;5083377;28;20222;-82
2021/05/05 06:53:26;;;;;;;5.00;4.70;;;10.20;99.90;;;;;;5072437;28;20248;-81
2021/05/05 06:55:52;;;;;;;5.00;4.70;;;10.20;99.90;;;;;;5073377;28;20194;-84
2021/05/05 06:58:19;;;;;;;5.30;4.80;;;10.30;99.90;;;;;;5073434;28;20210;-83
2021/05/05 07:00:46;;;;;;;5.10;4.10;;;10.60;99.90;;;;;;5071882;28;20211;-81
2021/05/05 07:03:13;;;;;;;4.33;4.00;;;11.10;99.90;;;;;;5072290;28;20195;-82
2021/05/05 07:05:40;;;;;;;4.73;4.30;;;11.20;99.90;;;;;;5072169;28;20198;-82
2021/05/05 07:08:06;;;;;;;4.70;4.30;;;11.10;99.90;;;;;;5081603;28;20595;-81
2021/05/05 07:10:33;;;;;;;7.90;7.30;;;10.80;99.90;;;;;;5072264;28;20187;-81
2021/05/05 07:12:59;;;;;;;8.80;8.20;;;10.70;99.90;;;;;;5072972;28;20605;-81
2021/05/05 07:15:25;;;;;;;5.40;5.00;;;10.70;99.90;;;;;;5071829;28;20199;-81
2021/05/05 07:17:53;;;;;;;3.87;3.50;;;11.10;99.90;;;;;;5072004;28;20643;-82
2021/05/05 07:20:19;;;;;;;5.27;3.70;;;11.50;99.90;;;;;;5056797;28;20209;-82
2021/05/05 07:22:45;;;;;;;6.90;4.10;;;11.40;99.90;;;;;;5071684;28;20210;-81
2021/05/05 07:25:12;;;;;;;6.50;3.80;;;11.40;99.90;;;;;;5071585;28;20199;-81
2021/05/05 07:27:39;;;;;;;5.13;3.83;;;11.90;99.90;;;;;;5071402;28;20231;-84
2021/05/05 07:30:07;;;;;;;5.47;3.43;;;12.60;99.90;;;;;;5071342;28;20204;-83
2021/05/05 07:32:33;;;;;;;2.93;2.40;;;13.30;99.90;;;;;;5084770;28;20679;-82
2021/05/05 07:35:03;;;;;;;7.47;5.33;;;13.80;99.90;;;;;;5071447;28;20275;-82
2021/05/05 07:37:40;;;;;;;5.07;4.53;;;14.50;99.90;;;;;;5071454;28;20232;-83
2021/05/05 07:41:18;;;;;;;6.30;5.30;;;15.20;99.90;;;;;;5071257;28;20550;-82
2021/05/05 07:46:12;;;;;;;4.60;4.10;;;15.30;99.90;;;;;;5071525;28;20194;-82
2021/05/05 07:48:41;;;;;;;5.80;5.30;;;15.10;99.90;;;;;;5071320;28;20191;-81
2021/05/05 07:51:09;;;;;;;6.23;5.83;;;14.90;99.90;;;;;;5071194;28;20282;-82
2021/05/05 07:53:36;;;;;;;5.60;5.07;;;14.50;99.90;;;;;;5071362;28;20225;-82
2021/05/05 07:56:03;;;;;;;4.30;3.00;;;14.20;99.90;;;;;;5072694;28;20278;-86
2021/05/05 07:58:29;;;;;;;7.60;7.00;;;13.80;99.90;;;;;;5071057;28;20229;-82
2021/05/05 08:00:56;;;;;;;7.70;7.10;;;13.40;99.90;;;;;;5070933;28;20683;-82
2021/05/05 08:03:22;;;;;;;7.63;6.93;;;13.10;99.90;;;;;;5072953;28;20233;-81
2021/05/05 08:05:49;;;;;;;7.53;6.90;;;12.70;99.90;;;;;;5072169;28;20573;-82
2021/05/05 08:08:16;;;;;;;8.20;6.50;;;12.50;99.90;;;;;;5070916;28;20217;-82
2021/05/05 08:10:43;;;;;;;7.20;6.63;;;12.20;99.90;;;;;;5071757;28;20191;-81
2021/05/05 08:13:09;;;;;;;8.37;7.23;;;12.00;99.90;;;;;;5071234;28;20295;-82
2021/05/05 08:15:35;;;;;;;7.97;6.97;;;12.10;99.90;;;;;;5067952;28;20198;-82
2021/05/05 08:18:03;;;;;;;7.37;6.67;;;12.30;99.90;;;;;;5070673;28;20234;-81
2021/05/05 08:20:30;;;;;;;7.37;6.77;;;12.50;99.90;;;;;;5071206;28;20649;-82
2021/05/05 08:22:56;;;;;;;7.90;7.10;;;13.10;99.90;;;;;;5088605;28;20210;-82
2021/05/05 08:25:24;;;;;;;6.97;6.43;;;12.90;99.90;;;;;;5070950;28;20209;-84
2021/05/05 08:27:50;;;;;;;7.43;6.73;;;12.70;99.90;;;;;;5070630;28;20255;-81
2021/05/05 08:30:17;;;;;;;7.10;6.57;;;12.60;99.90;;;;;;5086530;28;20191;-82
2021/05/05 08:32:44;;;;;;;6.90;6.30;;;12.60;99.90;;;;;;5070568;28;20661;-82
2021/05/05 08:35:11;;;;;;;7.40;6.70;;;12.40;99.90;;;;;;5072351;28;20665;-82
2021/05/05 08:37:38;;;;;;;7.20;6.70;;;12.40;99.90;;;;;;5071461;28;20223;-81
2021/05/05 08:40:07;;;;;;;7.20;6.70;;;12.40;99.90;;;;;;5070866;28;20577;-81
2021/05/05 08:42:35;;;;;;;8.20;7.27;;;13.30;99.90;;;;;;5070631;28;20300;-82
2021/05/05 08:45:01;;;;;;;6.27;5.67;;;14.00;99.90;;;;;;5071821;28;20201;-82
2021/05/05 08:47:28;;;;;;;4.60;3.20;;;14.10;99.90;;;;;;5087260;28;20218;-82
2021/05/05 08:49:54;;;;;;;3.30;3.00;;;14.00;99.90;;;;;;5071625;28;20194;-82
2021/05/05 08:52:20;;;;;;;3.70;3.20;;;14.10;99.90;;;;;;5071816;28;20179;-82
2021/05/05 08:54:49;;;;;;;3.27;2.87;;;14.60;99.90;;;;;;5070743;28;20222;-82
2021/05/05 08:57:18;;;;;;;4.87;3.27;;;15.40;99.90;;;;;;5070650;28;20721;-83
2021/05/05 08:59:45;;;;;;;4.10;3.33;;;16.10;99.90;;;;;;5073278;28;20194;-83
2021/05/05 09:02:11;;;;;;;8.57;7.70;;;16.00;99.90;;;;;;5070693;28;20586;-82
2021/05/05 09:04:37;;;;;;;7.90;7.20;;;16.10;99.90;;;;;;5070748;28;20213;-82
2021/05/05 09:07:04;;;;;;;6.67;3.90;;;16.40;99.90;;;;;;5070634;28;20256;-82
2021/05/05 09:09:41;;;;;;;3.60;3.13;;;16.70;99.90;;;;;;5071143;28;20207;-82
2021/05/05 09:12:16;;;;;;;6.77;5.60;;;16.60;99.90;;;;;;5073056;28;20274;-83
2021/05/05 09:14:51;;;;;;;5.60;2.33;;;16.50;99.90;;;;;;5067379;28;20660;-82
2021/05/05 09:17:19;;;;;;;2.80;2.60;;;16.60;99.90;;;;;;5071342;28;20598;-83
2021/05/05 09:19:45;;;;;;;7.57;6.90;;;16.60;99.90;;;;;;5070308;28;20212;-83
2021/05/05 09:22:12;;;;;;;6.90;6.30;;;16.00;99.90;;;;;;5070556;28;20220;-83
2021/05/05 09:24:39;;;;;;;6.97;6.47;;;15.40;99.90;;;;;;5070272;28;20195;-83
2021/05/05 09:27:07;;;;;;;8.67;7.00;;;14.90;99.90;;;;;;5071734;28;20236;-82
2021/05/05 09:29:41;;;;;;;8.10;7.40;;;14.70;99.90;;;;;;5070443;28;20680;-82
2021/05/05 09:32:10;;;;;;;7.53;6.80;;;15.30;99.90;;;;;;5070806;28;20652;-82
2021/05/05 09:34:37;;;;;;;7.77;7.07;;;15.80;99.90;;;;;;5072686;28;20198;-83
2021/05/05 09:37:07;;;;;;;7.10;6.50;;;16.20;99.90;;;;;;5075543;28;20225;-83
2021/05/05 09:39:38;;;;;;;7.70;7.17;;;16.80;99.90;;;;;;5073844;28;20198;-82
2021/05/05 09:42:23;;;;;;;7.70;7.03;;;17.00;99.90;;;;;;5074348;28;20223;-83
2021/05/05 09:44:53;;;;;;;7.50;7.00;;;17.40;99.60;;;;;;5074256;28;20204;-83
2021/05/05 09:47:20;;;;;;;7.93;7.20;;;17.50;99.90;;;;;;5076829;28;20274;-81
2021/05/05 09:49:47;;;;;;;7.60;6.97;;;17.20;99.20;;;;;;5073736;28;20199;-83
2021/05/05 09:52:22;;;;;;;7.53;6.77;;;16.60;97.70;;;;;;5074175;28;20236;-83
2021/05/05 09:54:55;;;;;;;6.60;6.13;;;16.30;96.90;;;;;;5074236;28;20241;-83
2021/05/05 09:57:23;;;;;;;6.90;6.30;;;16.10;95.50;;;;;;5068638;28;20207;-83
2021/05/05 10:00:02;;;;;;;7.20;6.40;;;16.60;95.80;;;;;;5073358;28;20241;-83
2021/05/05 10:02:44;;;;;;;7.40;6.70;;;16.80;93.30;;;;;;5076485;28;20241;-84
2021/05/05 10:05:12;;;;;;;7.90;7.30;;;16.60;94.60;;;;;;5086012;28;20201;-83
2021/05/05 10:07:56;;;;;;;10.23;7.43;;;16.40;95.00;;;;;;5073346;28;20307;-82
2021/05/05 10:10:25;;;;;;;7.77;7.13;;;16.00;94.20;;;;;;5066851;28;20204;-82
2021/05/05 10:12:53;;;;;;;7.47;6.83;;;15.70;95.00;;;;;;5074575;28;20197;-82
2021/05/05 10:15:19;;;;;;;7.23;6.70;;;15.40;95.60;;;;;;5082057;28;20326;-82
2021/05/05 10:17:49;;;;;;;7.13;6.40;;;15.10;95.20;;;;;;5071459;28;20215;-83
2021/05/05 10:20:18;;;;;;;7.27;6.53;;;15.10;96.10;;;;;;5073142;28;20220;-85
2021/05/05 10:22:45;;;;;;;7.40;6.70;;;15.00;96.30;;;;;;5074103;28;20565;-83
2021/05/05 10:25:14;;;;;;;6.93;6.43;;;15.10;95.90;;;;;;5074877;28;20243;-82
2021/05/05 10:27:41;;;;;;;6.83;6.30;;;15.00;95.90;;;;;;5072763;28;20226;-83
2021/05/05 10:30:10;;;;;;;6.43;5.83;;;14.90;95.80;;;;;;5072949;28;20194;-82
2021/05/05 10:32:39;;;;;;;6.40;5.97;;;14.80;95.40;;;;;;5074087;28;20660;-84
2021/05/05 10:35:09;;;;;;;6.23;5.63;;;14.80;95.70;;;;;;5074191;28;20222;-83
2021/05/05 10:37:44;;;;;;;6.30;5.80;;;14.80;94.40;;;;;;5074788;28;20214;-83
2021/05/05 10:40:19;;;;;;;6.60;6.10;;;14.90;95.20;;;;;;5067463;28;20198;-82
2021/05/05 10:42:50;;;;;;;8.13;6.30;;;15.10;95.00;;;;;;5073568;28;20222;-83
2021/05/05 10:45:29;;;;;;;6.80;6.20;;;15.10;93.40;;;;;;5072154;28;20682;-83
2021/05/05 10:48:12;;;;;;;6.60;6.03;;;15.20;94.40;;;;;;5075167;28;20218;-83
2021/05/05 10:50:58;;;;;;;6.47;6.00;;;15.30;94.40;;;;;;5072466;28;20214;-83
2021/05/05 10:53:26;;;;;;;6.70;6.10;;;15.10;92.50;;;;;;5072676;28;20201;-84
2021/05/05 10:55:56;;;;;;;7.17;6.57;;;15.00;92.80;;;;;;5074343;28;20233;-84
2021/05/05 10:58:28;;;;;;;6.77;6.17;;;15.10;93.10;;;;;;5073258;28;20232;-82
2021/05/05 11:01:03;;;;;;;7.30;6.70;;;15.10;92.80;;;;;;5074205;28;20297;-83
2021/05/05 11:03:54;;;;;;;6.50;6.00;;;14.90;94.00;;;;;;5073883;28;20204;-86
2021/05/05 11:06:58;;;;;;;6.53;5.93;;;15.10;94.20;;;;;;5068513;28;20198;-83
2021/05/05 11:09:46;;;;;;;6.23;5.80;;;15.30;93.40;;;;;;5066032;28;20619;-83
2021/05/05 11:12:41;;;;;;;6.40;6.00;;;15.00;92.40;;;;;;5072854;28;20574;-82
2021/05/05 11:15:09;;;;;;;6.70;6.20;;;15.10;93.60;;;;;;5073974;28;20202;-82
2021/05/05 11:17:35;;;;;;;6.40;5.90;;;14.80;91.70;;;;;;5073900;28;20694;-83
2021/05/05 11:20:02;;;;;;;7.03;6.30;;;14.50;92.60;;;;;;5082076;28;20199;-82
2021/05/05 11:22:49;;;;;;;6.20;5.70;;;14.30;92.80;;;;;;5072629;28;20250;-82
2021/05/05 11:25:27;;;;;;;6.30;5.80;;;14.10;93.90;;;;;;5059676;28;20202;-83
2021/05/05 11:27:59;;;;;;;6.57;6.03;;;14.10;93.70;;;;;;5072783;28;20681;-84
2021/05/05 11:30:50;;;;;;;6.63;6.03;;;13.60;95.70;;;;;;5084022;28;20202;-83
2021/05/05 11:33:17;;;;;;;6.70;6.10;;;13.00;98.90;;;;;;5066803;28;20198;-81
2021/05/05 11:35:44;;;;;;;8.40;6.53;;;12.50;99.90;;;;;;5089301;28;20202;-84
2021/05/05 11:38:23;;;;;;;6.97;6.37;;;12.10;99.90;;;;;;5072340;28;20214;-83
2021/05/05 11:40:55;;;;;;;6.50;6.10;;;11.60;99.90;;;;;;5072678;28;20224;-82
2021/05/05 11:43:22;;;;;;;6.43;6.03;;;11.10;99.90;;;;;;5073466;28;20697;-82
2021/05/05 11:45:51;;;;;;;7.17;6.67;;;11.00;99.90;;;;;;5072952;28;20666;-83
2021/05/05 11:48:36;;;;;;;7.43;6.70;;;11.00;99.90;;;;;;5072712;28;20220;-82
2021/05/05 11:51:14;;;;;;;6.87;6.40;;;11.00;99.90;;;;;;5071284;28;20207;-82
2021/05/05 11:53:42;;;;;;;7.00;6.40;;;11.00;99.90;;;;;;5069551;28;20220;-82
2021/05/05 11:56:16;;;;;;;6.30;5.90;;;11.10;99.90;;;;;;5070154;28;20197;-82
2021/05/05 11:58:42;;;;;;;6.43;5.93;;;11.20;99.90;;;;;;5074185;28;20269;-82
2021/05/05 12:01:09;;;;;;;6.20;5.80;;;11.50;99.90;;;;;;5065198;28;20212;-82
2021/05/05 12:03:35;;;;;;;6.13;5.80;;;11.70;99.90;;;;;;5074026;28;20376;-82
2021/05/05 12:06:01;;;;;;;6.17;5.63;;;12.20;99.90;;;;;;5074696;28;20201;-82
2021/05/05 12:08:29;;;;;;;6.00;5.70;;;12.60;99.90;;;;;;5073847;28;20224;-87
2021/05/05 12:10:58;;;;;;;6.07;5.67;;;12.70;99.90;;;;;;5072014;28;20207;-82
2021/05/05 12:13:29;;;;;;;5.90;5.60;;;12.60;99.90;;;;;;5074459;28;20657;-83
2021/05/05 12:16:05;;;;;;;6.10;5.70;;;12.60;99.90;;;;;;5072619;28;20624;-82
2021/05/05 12:18:35;;;;;;;5.20;4.80;;;12.50;99.90;;;;;;5072652;28;20218;-82
2021/05/05 12:21:05;;;;;;;6.30;5.90;;;12.40;99.90;;;;;;5088995;28;20208;-83
2021/05/05 12:23:36;;;;;;;6.20;5.80;;;12.40;99.90;;;;;;5073273;28;20189;-85
2021/05/05 12:26:13;;;;;;;7.10;6.70;;;12.50;99.90;;;;;;5073094;28;20218;-82
2021/05/05 12:28:40;;;;;;;7.00;6.50;;;12.40;99.90;;;;;;5071911;28;20221;-84
2021/05/05 12:31:06;;;;;;;7.57;6.97;;;12.40;99.90;;;;;;5071562;28;20206;-84
2021/05/05 12:33:36;;;;;;;7.20;6.60;;;12.40;99.90;;;;;;5071984;28;20201;-82
2021/05/05 12:36:07;;;;;;;6.87;6.47;;;12.60;99.90;;;;;;5072006;28;20234;-82
2021/05/05 12:38:35;;;;;;;7.17;6.50;;;12.80;99.90;;;;;;5071342;28;20216;-83
2021/05/05 12:41:03;;;;;;;7.17;6.67;;;12.90;99.90;;;;;;5071901;28;20199;-82
2021/05/05 12:43:31;;;;;;;6.30;5.90;;;12.60;99.90;;;;;;5071854;28;20201;-83
2021/05/05 12:45:59;;;;;;;6.83;6.30;;;12.20;99.90;;;;;;5070589;28;20199;-82
2021/05/05 12:48:28;;;;;;;6.10;5.70;;;12.10;99.90;;;;;;5080224;28;20235;-82
2021/05/05 12:51:05;;;;;;;7.47;6.87;;;12.20;99.90;;;;;;5081614;28;20201;-82
2021/05/05 12:53:56;;;;;;;6.80;6.20;;;12.30;99.90;;;;;;5070583;28;20197;-82
2021/05/05 12:56:39;;;;;;;6.30;5.90;;;12.30;99.90;;;;;;5067409;28;20205;-82
2021/05/05 12:59:07;;;;;;;6.10;5.70;;;12.30;99.90;;;;;;5071803;28;20197;-82
2021/05/05 13:01:33;;;;;;;6.07;5.67;;;12.30;99.90;;;;;;5071752;28;20249;-81
2021/05/05 13:04:00;;;;;;;6.50;6.00;;;12.30;99.90;;;;;;5070458;28;20227;-82